createdAt,value
2019-05-13T00:01:35.295Z,1.77
2019-05-13T00:04:04.775Z,1.10
2019-05-13T00:06:34.511Z,1.27
2019-05-13T00:09:06.736Z,1.30
2019-05-13T00:11:37.336Z,1.30
2019-05-13T00:14:06.815Z,1.33
2019-05-13T00:16:37.458Z,1.40
2019-05-13T00:19:08.493Z,1.50
2019-05-13T00:21:37.286Z,1.40
2019-05-13T00:24:09.454Z,1.47
2019-05-13T00:26:38.412Z,1.23
2019-05-13T00:29:07.778Z,1.30
2019-05-13T00:31:38.295Z,1.57
2019-05-13T00:34:10.673Z,1.27
2019-05-13T00:36:40.080Z,1.37
2019-05-13T00:39:10.030Z,1.50
2019-05-13T00:41:40.443Z,1.40
2019-05-13T00:44:11.043Z,1.17
2019-05-13T00:46:40.548Z,1.57
2019-05-13T00:49:13.282Z,1.20
2019-05-13T00:51:44.514Z,1.30
2019-05-13T00:54:15.385Z,1.37
2019-05-13T00:56:45.906Z,1.20
2019-05-13T00:59:15.202Z,1.53
2019-05-13T01:01:45.559Z,1.17
2019-05-13T01:04:16.168Z,1.40
2019-05-13T01:06:46.798Z,1.10
2019-05-13T01:09:16.185Z,1.00
2019-05-13T01:11:46.570Z,1.37
2019-05-13T01:14:18.877Z,1.57
2019-05-13T01:16:49.238Z,1.50
2019-05-13T01:19:18.610Z,1.70
2019-05-13T01:21:54.061Z,1.43
2019-05-13T01:24:24.357Z,1.27
2019-05-13T01:26:55.248Z,1.17
2019-05-13T01:29:25.766Z,1.30
2019-05-13T01:31:56.164Z,1.30
2019-05-13T01:34:25.524Z,1.60
2019-05-13T01:36:55.874Z,1.17
2019-05-13T01:39:28.320Z,1.40
2019-05-13T01:41:57.808Z,1.13
2019-05-13T01:44:28.201Z,1.20
2019-05-13T01:46:58.909Z,1.40
2019-05-13T01:49:29.778Z,1.87
2019-05-13T01:52:03.797Z,1.20
2019-05-13T01:54:34.219Z,1.20
2019-05-13T01:57:04.472Z,1.20
2019-05-13T01:59:36.783Z,1.27
2019-05-13T02:02:06.782Z,1.60
2019-05-13T02:04:37.179Z,1.30
2019-05-13T02:07:06.545Z,1.23
2019-05-13T02:09:37.260Z,1.77
2019-05-13T02:12:06.740Z,1.50
2019-05-13T02:14:38.801Z,1.30
2019-05-13T02:17:08.210Z,1.40
2019-05-13T02:19:38.776Z,1.53
2019-05-13T02:22:09.182Z,1.67
2019-05-13T02:24:41.572Z,1.20
2019-05-13T02:27:10.991Z,1.67
2019-05-13T02:29:43.511Z,1.53
2019-05-13T02:32:13.981Z,1.20
2019-05-13T02:34:44.113Z,1.40
2019-05-13T02:37:15.212Z,1.23
2019-05-13T02:39:45.690Z,1.73
2019-05-13T02:42:17.238Z,1.53
2019-05-13T02:44:52.293Z,1.40
2019-05-13T02:47:22.608Z,1.43
2019-05-13T02:49:53.562Z,1.50
2019-05-13T02:52:24.137Z,1.20
2019-05-13T02:54:53.553Z,1.70
2019-05-13T02:57:24.178Z,1.00
2019-05-13T02:59:53.526Z,1.23
2019-05-13T03:02:22.548Z,1.50
2019-05-13T03:04:55.063Z,1.10
2019-05-13T03:07:25.479Z,1.37
2019-05-13T03:09:57.552Z,1.80
2019-05-13T03:12:26.917Z,1.50
2019-05-13T03:14:56.593Z,1.20
2019-05-13T03:17:36.528Z,1.40
2019-05-13T03:20:11.931Z,1.30
2019-05-13T03:22:38.594Z,2.00
2019-05-13T03:25:12.891Z,1.40
2019-05-13T03:27:43.072Z,1.60
2019-05-13T03:30:16.479Z,1.13
2019-05-13T03:32:53.042Z,1.40
2019-05-13T03:35:16.954Z,1.33
2019-05-13T03:37:46.637Z,1.50
2019-05-13T03:40:18.379Z,1.43
2019-05-13T03:42:53.451Z,1.67
2019-05-13T03:45:26.504Z,1.50
2019-05-13T03:47:56.955Z,1.00
2019-05-13T03:50:30.526Z,2.03
2019-05-13T03:53:02.663Z,1.87
2019-05-13T03:55:32.801Z,1.50
2019-05-13T03:58:02.967Z,2.00
2019-05-13T04:00:33.750Z,1.83
2019-05-13T04:03:06.240Z,1.70
2019-05-13T04:05:36.035Z,1.30
2019-05-13T04:08:06.542Z,1.50
2019-05-13T04:10:35.108Z,1.67
2019-05-13T04:13:04.196Z,1.50
2019-05-13T04:15:35.052Z,1.50
2019-05-13T04:18:04.600Z,1.50
2019-05-13T04:20:34.002Z,1.47
2019-05-13T04:23:03.529Z,1.87
2019-05-13T04:25:33.833Z,1.53
2019-05-13T04:28:04.347Z,1.37
2019-05-13T04:30:34.893Z,1.40
2019-05-13T04:33:05.365Z,2.07
2019-05-13T04:35:34.975Z,1.63
2019-05-13T04:38:09.011Z,2.23
2019-05-13T04:40:36.579Z,1.30
2019-05-13T04:43:06.982Z,1.37
2019-05-13T04:45:36.371Z,1.83
2019-05-13T04:48:06.959Z,1.43
2019-05-13T04:50:36.445Z,1.33
2019-05-13T04:53:07.756Z,1.70
2019-05-13T04:55:38.294Z,1.50
2019-05-13T04:58:08.792Z,1.40
2019-05-13T05:01:14.111Z,1.77
2019-05-13T05:03:53.932Z,1.30
2019-05-13T05:06:35.374Z,1.73
2019-05-13T05:09:14.772Z,2.10
2019-05-13T05:12:23.217Z,1.70
2019-05-13T05:15:23.201Z,1.80
2019-05-13T05:18:07.547Z,1.67
2019-05-13T05:21:12.025Z,2.10
2019-05-13T05:23:54.626Z,2.43
2019-05-13T05:26:43.321Z,1.60
2019-05-13T05:29:25.216Z,1.50
2019-05-13T05:32:28.218Z,1.83
2019-05-13T05:35:17.965Z,1.70
2019-05-13T05:38:25.252Z,1.50
2019-05-13T05:40:53.203Z,1.80
2019-05-13T05:43:25.192Z,1.70
2019-05-13T05:45:56.276Z,1.90
2019-05-13T05:48:26.762Z,1.77
2019-05-13T05:51:01.982Z,1.87
2019-05-13T05:53:32.026Z,1.47
2019-05-13T05:56:06.346Z,1.57
2019-05-13T05:58:35.914Z,1.87
2019-05-13T06:01:05.486Z,1.40
2019-05-13T06:03:37.686Z,1.60
2019-05-13T06:06:08.782Z,1.87
2019-05-13T06:08:38.333Z,1.43
2019-05-13T06:11:08.828Z,1.80
2019-05-13T06:13:43.100Z,1.83
2019-05-13T06:16:14.139Z,1.90
2019-05-13T06:18:44.590Z,1.80
2019-05-13T06:21:15.417Z,1.97
2019-05-13T06:23:45.918Z,1.80
2019-05-13T06:26:15.344Z,1.63
2019-05-13T06:28:47.024Z,1.50
2019-05-13T06:31:17.864Z,2.00
2019-05-13T06:33:48.232Z,1.73
2019-05-13T06:36:22.054Z,1.77
2019-05-13T06:38:51.512Z,1.50
2019-05-13T06:41:21.940Z,1.40
2019-05-13T06:43:54.022Z,1.60
2019-05-13T06:46:24.533Z,1.47
2019-05-13T06:48:53.938Z,1.20
2019-05-13T06:51:25.559Z,1.33
2019-05-13T06:53:57.943Z,1.45
2019-05-13T06:56:27.362Z,1.65
2019-05-13T06:58:58.021Z,1.35
2019-05-13T07:01:28.459Z,1.40
2019-05-13T07:03:58.807Z,1.20
2019-05-13T07:06:32.087Z,1.40
2019-05-13T07:09:01.470Z,1.22
2019-05-13T07:11:31.589Z,1.57
2019-05-13T07:14:02.555Z,1.62
2019-05-13T07:16:33.417Z,1.30
2019-05-13T07:19:05.438Z,1.10
2019-05-13T07:21:36.038Z,1.60
2019-05-13T07:24:07.988Z,1.67
2019-05-13T07:26:42.022Z,1.37
2019-05-13T07:29:13.395Z,1.52
2019-05-13T07:31:42.616Z,1.17
2019-05-13T07:34:13.259Z,1.45
2019-05-13T07:36:43.961Z,1.40
2019-05-13T07:39:13.320Z,1.22
2019-05-13T07:41:43.733Z,1.32
2019-05-13T07:44:14.105Z,1.32
2019-05-13T07:46:44.541Z,1.65
2019-05-13T07:49:13.871Z,1.52
2019-05-13T07:51:46.047Z,1.22
2019-05-13T07:54:18.543Z,1.50
2019-05-13T07:56:49.163Z,1.25
2019-05-13T07:59:20.578Z,1.37
2019-05-13T08:01:52.321Z,1.30
2019-05-13T08:04:26.092Z,1.50
2019-05-13T08:06:52.915Z,1.47
2019-05-13T08:09:24.662Z,1.10
2019-05-13T08:12:04.702Z,1.72
2019-05-13T08:14:28.049Z,1.35
2019-05-13T08:16:57.455Z,1.27
2019-05-13T08:19:29.453Z,1.30
2019-05-13T08:22:02.137Z,1.52
2019-05-13T08:24:34.057Z,1.30
2019-05-13T08:27:03.564Z,1.17
2019-05-13T08:29:34.060Z,1.00
2019-05-13T08:32:03.440Z,1.62
2019-05-13T08:34:33.914Z,1.12
2019-05-13T08:37:03.511Z,0.93
2019-05-13T08:39:38.090Z,1.10
2019-05-13T08:42:15.226Z,1.20
2019-05-13T08:44:37.902Z,1.32
2019-05-13T08:47:07.456Z,1.25
2019-05-13T08:49:38.047Z,1.07
2019-05-13T08:52:12.907Z,1.20
2019-05-13T08:54:42.273Z,0.90
2019-05-13T08:57:12.777Z,0.82
2019-05-13T08:59:43.391Z,1.72
2019-05-13T09:02:13.297Z,2.05
2019-05-13T09:04:44.955Z,1.20
2019-05-13T09:07:15.860Z,0.98
2019-05-13T09:09:45.275Z,1.12
2019-05-13T09:12:28.453Z,1.10
2019-05-13T09:14:52.217Z,1.42
2019-05-13T09:17:21.766Z,1.07
2019-05-13T09:19:52.198Z,1.00
2019-05-13T09:22:23.600Z,1.35
2019-05-13T09:24:56.117Z,1.20
2019-05-13T09:27:27.774Z,1.22
2019-05-13T09:29:56.579Z,2.15
2019-05-13T09:32:25.523Z,1.25
2019-05-13T09:34:56.183Z,1.75
2019-05-13T09:37:26.682Z,1.20
2019-05-13T09:39:57.505Z,1.40
2019-05-13T09:42:27.092Z,1.17
2019-05-13T09:44:57.594Z,1.25
2019-05-13T09:47:28.533Z,1.22
2019-05-13T09:49:59.034Z,1.25
2019-05-13T09:52:31.731Z,1.90
2019-05-13T09:55:03.158Z,0.88
2019-05-13T09:57:33.519Z,1.37
2019-05-13T10:00:03.882Z,1.30
2019-05-13T10:02:33.185Z,1.10
2019-05-13T10:05:03.860Z,1.50
2019-05-13T10:07:34.322Z,1.00
2019-05-13T10:10:06.700Z,1.23
2019-05-13T10:12:37.064Z,1.20
2019-05-13T10:15:09.521Z,1.43
2019-05-13T10:17:42.683Z,1.50
2019-05-13T10:20:12.814Z,1.00
2019-05-13T10:22:44.739Z,1.60
2019-05-13T10:25:18.406Z,1.00
2019-05-13T10:27:49.012Z,1.17
2019-05-13T10:30:21.766Z,1.67
2019-05-13T10:32:59.287Z,1.00
2019-05-13T10:35:27.422Z,1.30
2019-05-13T10:37:57.930Z,1.20
2019-05-13T10:40:32.850Z,0.90
2019-05-13T10:43:02.232Z,1.37
2019-05-13T10:45:34.684Z,1.10
2019-05-13T10:48:03.270Z,1.30
2019-05-13T10:50:33.614Z,1.30
2019-05-13T10:53:03.261Z,1.30
2019-05-13T10:55:33.588Z,1.20
2019-05-13T10:58:03.072Z,1.00
2019-05-13T11:00:49.107Z,0.73
2019-05-13T11:03:23.379Z,0.77
2019-05-13T11:05:53.803Z,1.47
2019-05-13T11:08:24.522Z,1.00
2019-05-13T11:10:56.687Z,1.00
2019-05-13T11:13:26.176Z,1.30
2019-05-13T11:15:58.154Z,1.37
2019-05-13T11:18:27.206Z,1.10
2019-05-13T11:20:56.699Z,1.03
2019-05-13T11:23:26.156Z,1.07
2019-05-13T11:25:55.533Z,0.90
2019-05-13T11:28:25.071Z,1.10
2019-05-13T11:30:59.583Z,1.40
2019-05-13T11:33:31.580Z,1.10
2019-05-13T11:36:02.956Z,1.37
2019-05-13T11:38:32.716Z,1.00
2019-05-13T11:41:02.898Z,1.40
2019-05-13T11:43:33.127Z,1.30
2019-05-13T11:46:05.064Z,1.00
2019-05-13T11:48:35.471Z,1.50
2019-05-13T11:51:05.912Z,1.20
2019-05-13T11:53:37.656Z,1.47
2019-05-13T11:56:08.392Z,2.03
2019-05-13T11:58:42.813Z,1.50
2019-05-13T12:01:11.288Z,1.30
2019-05-13T12:03:43.488Z,0.90
2019-05-13T12:06:16.722Z,0.90
2019-05-13T12:08:51.033Z,1.10
2019-05-13T12:11:18.251Z,1.73
2019-05-13T12:13:48.643Z,1.10
2019-05-13T12:16:18.049Z,1.10
2019-05-13T12:18:47.535Z,1.10
2019-05-13T12:21:16.946Z,0.90
2019-05-13T12:23:48.545Z,1.50
2019-05-13T12:26:19.001Z,1.20
2019-05-13T12:28:53.656Z,1.10
2019-05-13T12:31:22.642Z,1.00
2019-05-13T12:33:53.158Z,1.17
2019-05-13T12:36:24.332Z,1.20
2019-05-13T12:38:56.733Z,1.17
2019-05-13T12:41:26.077Z,1.40
2019-05-13T12:43:56.648Z,1.13
2019-05-13T12:46:26.048Z,1.13
2019-05-13T12:48:56.541Z,1.33
2019-05-13T12:51:26.190Z,1.20
2019-05-13T12:53:57.550Z,1.37
2019-05-13T12:56:26.904Z,1.27
2019-05-13T12:59:02.715Z,2.13
2019-05-13T13:01:33.241Z,1.17
2019-05-13T13:04:03.840Z,1.57
2019-05-13T13:06:40.652Z,1.27
2019-05-13T13:09:04.723Z,1.27
2019-05-13T13:11:34.256Z,1.10
2019-05-13T13:14:07.718Z,0.87
2019-05-13T13:16:37.332Z,0.97
2019-05-13T13:19:07.175Z,1.17
2019-05-13T13:21:37.706Z,1.50
2019-05-13T13:24:08.356Z,1.27
2019-05-13T13:26:37.843Z,1.30
2019-05-13T13:29:07.224Z,1.47
2019-05-13T13:31:37.900Z,1.47
2019-05-13T13:34:13.605Z,1.30
2019-05-13T13:36:45.276Z,1.27
2019-05-13T13:39:14.872Z,1.23
2019-05-13T13:41:44.902Z,1.40
2019-05-13T13:44:16.980Z,1.47
2019-05-13T13:46:49.511Z,1.10
2019-05-13T13:49:18.512Z,1.40
2019-05-13T13:51:48.910Z,1.20
2019-05-13T13:54:22.178Z,1.50
2019-05-13T13:56:55.814Z,1.63
2019-05-13T13:59:24.791Z,1.37
2019-05-13T14:01:56.659Z,1.67
2019-05-13T14:04:27.065Z,2.40
2019-05-13T14:09:29.754Z,2.00
2019-05-13T14:12:01.990Z,2.00
2019-05-13T14:14:31.997Z,1.60
2019-05-13T14:17:02.611Z,1.83
2019-05-13T14:19:32.463Z,2.13
2019-05-13T14:22:04.603Z,1.67
2019-05-13T14:24:34.008Z,2.30
2019-05-13T14:27:03.689Z,1.87
2019-05-13T14:29:40.723Z,1.47
2019-05-13T14:32:05.388Z,1.67
2019-05-13T14:34:34.881Z,1.90
2019-05-13T14:37:07.187Z,1.93
2019-05-13T14:39:37.560Z,1.40
2019-05-13T14:42:11.655Z,1.50
2019-05-13T14:44:44.331Z,1.30
2019-05-13T14:47:14.725Z,1.43
2019-05-13T14:49:46.852Z,1.60
2019-05-13T14:52:17.307Z,1.73
2019-05-13T14:54:47.813Z,1.33
2019-05-13T14:57:21.549Z,1.50
2019-05-13T14:59:51.624Z,1.20
2019-05-13T15:02:24.146Z,1.60
2019-05-13T15:04:53.987Z,1.80
2019-05-13T15:07:23.610Z,2.63
2019-05-13T15:09:53.005Z,2.10
2019-05-13T15:12:23.892Z,1.57
2019-05-13T15:14:54.413Z,1.33
2019-05-13T15:17:24.751Z,2.20
2019-05-13T15:19:55.107Z,1.30
2019-05-13T15:22:26.829Z,1.70
2019-05-13T15:24:57.275Z,2.10
2019-05-13T15:27:31.653Z,1.20
2019-05-13T15:30:14.526Z,1.77
2019-05-13T15:32:32.718Z,1.70
2019-05-13T15:35:04.272Z,2.00
2019-05-13T15:37:34.988Z,1.90
2019-05-13T15:40:06.406Z,1.47
2019-05-13T15:42:38.681Z,1.77
2019-05-13T15:45:08.886Z,1.30
2019-05-13T15:47:39.278Z,1.63
2019-05-13T15:50:08.941Z,1.80
2019-05-13T15:52:38.361Z,2.50
2019-05-13T15:55:11.456Z,3.00
2019-05-13T15:57:42.760Z,2.80
2019-05-13T16:00:15.803Z,4.17
2019-05-13T16:02:45.208Z,3.00
2019-05-13T16:05:14.639Z,3.00
2019-05-13T16:07:45.345Z,5.00
2019-05-13T16:10:18.258Z,2.17
2019-05-13T16:12:51.838Z,2.27
2019-05-13T16:15:24.606Z,3.43
2019-05-13T16:17:55.115Z,3.00
2019-05-13T16:20:24.621Z,3.40
2019-05-13T16:22:55.300Z,2.30
2019-05-13T16:25:24.678Z,5.50
2019-05-13T16:27:54.069Z,2.07
2019-05-13T16:30:27.495Z,1.87
2019-05-13T16:32:59.244Z,2.40
2019-05-13T16:35:28.891Z,2.90
2019-05-13T16:37:58.717Z,3.43
2019-05-13T16:40:33.655Z,3.03
2019-05-13T16:43:01.691Z,2.80
2019-05-13T16:45:32.208Z,2.80
2019-05-13T16:48:04.187Z,2.53
2019-05-13T16:50:33.730Z,3.10
2019-05-13T16:53:03.032Z,2.87
2019-05-13T16:55:33.824Z,5.63
2019-05-13T16:58:04.215Z,3.23
2019-05-13T17:00:34.725Z,6.10
2019-05-13T17:03:05.027Z,4.50
2019-05-13T17:05:34.490Z,4.90
2019-05-13T17:08:04.881Z,4.53
2019-05-13T17:10:35.469Z,5.60
2019-05-13T17:13:05.711Z,4.67
2019-05-13T17:15:37.055Z,3.03
2019-05-13T17:18:11.890Z,3.53
2019-05-13T17:20:41.446Z,6.97
2019-05-13T17:23:12.585Z,5.33
2019-05-13T17:25:43.937Z,4.13
2019-05-13T17:28:17.122Z,3.67
2019-05-13T17:30:47.538Z,3.67
2019-05-13T17:33:18.038Z,2.77
2019-05-13T17:35:48.662Z,2.77
2019-05-13T17:38:21.812Z,8.03
2019-05-13T17:40:53.048Z,4.57
2019-05-13T17:43:22.387Z,10.13
2019-05-13T17:45:52.887Z,5.00
2019-05-13T17:48:29.181Z,4.73
2019-05-13T17:50:57.671Z,11.90
2019-05-13T17:53:27.968Z,4.07
2019-05-13T17:55:57.342Z,5.23
2019-05-13T17:58:31.239Z,4.70
2019-05-13T18:01:01.670Z,2.80
2019-05-13T18:03:32.115Z,3.00
2019-05-13T18:06:02.454Z,2.90
2019-05-13T18:08:32.052Z,4.27
2019-05-13T18:11:02.607Z,3.23
2019-05-13T18:13:32.620Z,2.73
2019-05-13T18:16:02.720Z,2.13
2019-05-13T18:18:43.209Z,3.63
2019-05-13T18:21:04.982Z,2.17
2019-05-13T18:23:34.296Z,1.80
2019-05-13T18:26:05.242Z,1.50
2019-05-13T18:28:35.626Z,1.67
2019-05-13T18:31:07.915Z,3.00
2019-05-13T18:33:38.804Z,2.90
2019-05-13T18:36:11.833Z,2.57
2019-05-13T18:38:41.856Z,2.20
2019-05-13T18:41:12.038Z,2.50
2019-05-13T18:43:44.748Z,2.13
2019-05-13T18:46:14.002Z,3.87
2019-05-13T18:48:58.108Z,3.40
2019-05-13T18:51:15.453Z,2.77
2019-05-13T18:53:49.085Z,2.13
2019-05-13T18:56:18.486Z,1.63
2019-05-13T18:58:49.164Z,2.37
2019-05-13T19:01:21.675Z,2.10
2019-05-13T19:03:52.483Z,2.20
2019-05-13T19:06:22.453Z,2.33
2019-05-13T19:08:53.086Z,2.60
2019-05-13T19:11:24.446Z,4.37
2019-05-13T19:13:53.838Z,5.03
2019-05-13T19:16:24.199Z,3.00
2019-05-13T19:18:54.603Z,2.30
2019-05-13T19:21:25.009Z,2.90
2019-05-13T19:23:55.521Z,2.43
2019-05-13T19:26:25.926Z,3.13
2019-05-13T19:28:56.234Z,3.23
2019-05-13T19:31:28.617Z,2.57
2019-05-13T19:34:01.354Z,5.97
2019-05-13T19:36:29.696Z,3.50
2019-05-13T19:39:01.821Z,4.40
2019-05-13T19:41:32.536Z,5.93
2019-05-13T19:44:02.839Z,3.23
2019-05-13T19:46:33.564Z,3.67
2019-05-13T19:49:04.423Z,2.33
2019-05-13T19:51:38.438Z,2.47
2019-05-13T19:54:08.846Z,1.87
2019-05-13T19:56:38.315Z,3.17
2019-05-13T19:59:12.270Z,3.30
2019-05-13T20:01:42.482Z,3.57
2019-05-13T20:04:14.332Z,2.57
2019-05-13T20:06:45.997Z,2.60
2019-05-13T20:09:15.247Z,2.70
2019-05-13T20:11:45.723Z,3.10
2019-05-13T20:14:16.285Z,2.80
2019-05-13T20:16:46.679Z,3.40
2019-05-13T20:19:16.354Z,2.87
2019-05-13T20:21:46.931Z,2.73
2019-05-13T20:24:17.369Z,2.53
2019-05-13T20:26:52.016Z,2.73
2019-05-13T20:29:20.835Z,3.30
2019-05-13T20:31:51.866Z,3.47
2019-05-13T20:34:22.206Z,2.60
2019-05-13T20:36:53.787Z,2.10
2019-05-13T20:39:24.192Z,2.83
2019-05-13T20:41:55.827Z,3.00
2019-05-13T20:44:25.376Z,2.57
2019-05-13T20:46:57.100Z,2.40
2019-05-13T20:49:27.478Z,1.70
2019-05-13T20:51:57.913Z,2.30
2019-05-13T20:54:32.049Z,2.00
2019-05-13T20:57:02.120Z,1.97
2019-05-13T20:59:32.537Z,1.80
2019-05-13T21:02:06.714Z,2.07
2019-05-13T21:04:37.119Z,3.10
2019-05-13T21:07:08.297Z,3.03
2019-05-13T21:09:38.665Z,2.40
2019-05-13T21:12:09.074Z,2.57
2019-05-13T21:14:38.666Z,2.83
2019-05-13T21:17:12.313Z,2.23
2019-05-13T21:19:43.106Z,2.00
2019-05-13T21:22:13.719Z,2.27
2019-05-13T21:24:44.129Z,1.83
2019-05-13T21:27:14.750Z,2.27
2019-05-13T21:29:44.212Z,1.60
2019-05-13T21:32:17.527Z,2.40
2019-05-13T21:34:45.961Z,2.00
2019-05-13T21:37:15.377Z,2.23
2019-05-13T21:39:44.852Z,2.33
2019-05-13T21:42:16.862Z,2.43
2019-05-13T21:44:46.157Z,2.50
2019-05-13T21:47:15.594Z,2.60
2019-05-13T21:49:46.196Z,2.60
2019-05-13T21:52:16.705Z,2.10
2019-05-13T21:54:47.111Z,2.20
2019-05-13T21:57:17.418Z,2.27
2019-05-13T21:59:47.887Z,2.33
2019-05-13T22:02:18.226Z,2.20
2019-05-13T22:04:48.748Z,2.67
2019-05-13T22:07:18.326Z,2.63
2019-05-13T22:09:51.223Z,2.10
2019-05-13T22:12:21.698Z,2.10
2019-05-13T22:14:52.244Z,2.20
2019-05-13T22:17:21.608Z,2.00
2019-05-13T22:19:51.342Z,2.20
2019-05-13T22:22:22.184Z,2.60
2019-05-13T22:24:52.608Z,3.70
2019-05-13T22:27:23.007Z,2.30
2019-05-13T22:29:55.190Z,2.20
2019-05-13T22:32:24.610Z,2.67
2019-05-13T22:34:56.878Z,2.10
2019-05-13T22:37:26.202Z,1.93
2019-05-13T22:39:55.618Z,1.83
2019-05-13T22:42:28.161Z,2.30
2019-05-13T22:44:58.673Z,2.53
2019-05-13T22:47:28.148Z,2.60
2019-05-13T22:50:02.133Z,2.53
2019-05-13T22:52:31.892Z,4.00
2019-05-13T22:55:04.259Z,3.33
2019-05-13T22:57:34.682Z,3.33
2019-05-13T23:00:06.428Z,5.10
2019-05-13T23:02:36.834Z,3.43
2019-05-13T23:05:08.388Z,3.40
2019-05-13T23:07:38.802Z,3.00
2019-05-13T23:10:11.797Z,2.87
2019-05-13T23:12:42.185Z,2.70
2019-05-13T23:15:12.955Z,3.20
2019-05-13T23:17:43.447Z,2.60
2019-05-13T23:20:14.073Z,3.07
2019-05-13T23:22:44.466Z,2.57
2019-05-13T23:25:14.881Z,3.23
2019-05-13T23:27:46.707Z,3.67
2019-05-13T23:30:16.352Z,2.80
2019-05-13T23:32:46.823Z,2.70
2019-05-13T23:35:15.702Z,2.90
2019-05-13T23:37:45.037Z,2.90
2019-05-13T23:40:16.046Z,3.70
2019-05-13T23:42:45.418Z,2.90
2019-05-13T23:45:16.026Z,2.80
2019-05-13T23:47:45.534Z,2.73
2019-05-13T23:50:14.262Z,3.30
2019-05-13T23:52:44.841Z,2.83
2019-05-13T23:55:15.349Z,3.10
2019-05-13T23:57:47.113Z,2.40
